Time;durP1;ratioP1;P1;durP2;ratioP2;P2;SDS_P1;SDS_P2;PMS_P1;PMS_P2;Temp;Humidity;BMP_temperature;BMP_pressure;BME280_temperature;BME280_humidity;BME280_pressure;Samples;Min_cycle;Max_cycle;Signal;HPM_P1;HPM_P2
2021/03/24 00:01:02;;;;;;;15.75;6.97;;;0.00;92.20;;;;;;5009417;28;20050;-60
2021/03/24 00:03:43;;;;;;;16.85;5.93;;;0.00;92.10;;;;;;5013072;28;20418;-60
2021/03/24 00:06:11;;;;;;;21.20;7.43;;;0.00;92.20;;;;;;5016189;28;20058;-61
2021/03/24 00:08:38;;;;;;;16.73;7.20;;;0.00;92.40;;;;;;5016357;28;20072;-61
2021/03/24 00:11:07;;;;;;;17.38;6.85;;;0.00;92.40;;;;;;5030135;28;20265;-61
2021/03/24 00:13:35;;;;;;;15.80;7.43;;;0.00;92.00;;;;;;5017453;28;20057;-61
2021/03/24 00:16:04;;;;;;;15.13;6.85;;;-3276.70;92.10;;;;;;5012586;28;23037;-61
2021/03/24 00:18:31;;;;;;;14.25;6.93;;;-3276.70;92.10;;;;;;5016878;28;20085;-60
2021/03/24 00:20:59;;;;;;;12.23;6.35;;;-3276.60;92.20;;;;;;5015996;28;20050;-60
2021/03/24 00:23:26;;;;;;;17.13;6.63;;;-3276.60;92.40;;;;;;5017750;28;20202;-60
2021/03/24 00:25:54;;;;;;;16.23;7.18;;;-3276.60;92.30;;;;;;5017424;28;23228;-61
2021/03/24 00:28:22;;;;;;;16.80;6.03;;;-3276.60;92.40;;;;;;5016330;28;20057;-61
2021/03/24 00:30:50;;;;;;;12.38;5.70;;;-3276.50;92.40;;;;;;5017437;28;20078;-61
2021/03/24 00:33:21;;;;;;;17.17;8.10;;;-3276.50;92.60;;;;;;5014875;28;20046;-61
2021/03/24 00:35:47;;;;;;;;;;;-3276.50;92.50;;;;;;5018412;28;20045;-61
2021/03/24 00:38:17;;;;;;;12.48;5.97;;;-3276.50;92.70;;;;;;5016199;28;19917;-60
2021/03/24 00:40:46;;;;;;;14.23;5.95;;;-3276.40;92.60;;;;;;5017475;28;20053;-61
2021/03/24 00:43:14;;;;;;;13.55;6.53;;;-3276.50;92.80;;;;;;5017696;28;20348;-60
2021/03/24 00:45:41;;;;;;;12.48;5.72;;;-3276.40;92.40;;;;;;5017086;28;20046;-61
2021/03/24 00:48:18;;;;;;;11.85;5.55;;;-3276.40;92.40;;;;;;5017182;28;20056;-60
2021/03/24 00:50:46;;;;;;;10.75;4.50;;;-3276.40;92.60;;;;;;5012385;28;20351;-61
2021/03/24 00:53:13;;;;;;;13.63;4.85;;;-3276.30;92.70;;;;;;5014492;28;20377;-61
2021/03/24 00:55:41;;;;;;;15.55;6.60;;;-3276.30;92.70;;;;;;5017706;28;20398;-61
2021/03/24 00:58:14;;;;;;;16.50;7.13;;;-3276.30;92.70;;;;;;5015752;28;20053;-61
2021/03/24 01:00:42;;;;;;;14.88;6.38;;;-3276.40;92.60;;;;;;5029521;28;20335;-61
2021/03/24 01:03:09;;;;;;;15.68;5.32;;;-3276.30;92.40;;;;;;5012785;28;20070;-61
2021/03/24 01:05:37;;;;;;;18.48;6.25;;;-3276.30;92.50;;;;;;5016993;28;20322;-61
2021/03/24 01:08:10;;;;;;;13.55;5.47;;;-3276.30;92.60;;;;;;5015014;28;20073;-61
2021/03/24 01:10:40;;;;;;;13.30;6.28;;;-3276.30;92.60;;;;;;5015323;28;20519;-60
2021/03/24 01:13:09;;;;;;;12.55;5.43;;;-3276.20;92.50;;;;;;5018518;28;20233;-60
2021/03/24 01:15:36;;;;;;;16.98;5.03;;;-3276.20;92.50;;;;;;5018639;28;20049;-60
2021/03/24 01:18:09;;;;;;;7.72;4.05;;;-3276.20;92.50;;;;;;5015586;28;20250;-61
2021/03/24 01:20:38;;;;;;;12.55;5.40;;;-3276.20;92.50;;;;;;5013061;28;20121;-61
2021/03/24 01:23:05;;;;;;;14.43;5.88;;;-3276.20;92.50;;;;;;5010064;28;20061;-60
2021/03/24 01:25:32;;;;;;;9.82;4.20;;;-3276.20;92.50;;;;;;5006231;28;20053;-60
2021/03/24 01:27:59;;;;;;;12.38;5.93;;;-3276.20;92.40;;;;;;5014169;28;20045;-61
2021/03/24 01:30:29;;;;;;;11.13;4.63;;;-3276.20;92.50;;;;;;5019835;28;20060;-61
2021/03/24 01:32:57;;;;;;;10.52;4.22;;;-3276.10;92.50;;;;;;5016362;28;20042;-60
2021/03/24 01:35:25;;;;;;;11.63;5.25;;;-3276.10;92.40;;;;;;5009786;28;20333;-61
2021/03/24 01:37:53;;;;;;;13.45;6.22;;;-3276.10;92.50;;;;;;5014154;28;20045;-61
2021/03/24 01:40:25;;;;;;;10.85;5.40;;;-3276.10;92.40;;;;;;5015130;28;20767;-61
2021/03/24 01:42:57;;;;;;;18.00;4.40;;;-3276.20;92.30;;;;;;5010808;28;20215;-62
2021/03/24 01:46:07;;;;;;;13.95;6.45;;;-3276.20;91.90;;;;;;5013358;28;20515;-61
2021/03/24 01:48:36;;;;;;;20.20;7.72;;;-3276.10;92.10;;;;;;5012821;28;20244;-62
2021/03/24 01:51:04;;;;;;;15.50;6.45;;;-3276.10;92.40;;;;;;5009754;28;20073;-61
2021/03/24 01:53:34;;;;;;;11.85;5.18;;;-3276.20;92.20;;;;;;5029293;28;20057;-61
2021/03/24 01:56:08;;;;;;;14.80;6.47;;;-3276.10;92.00;;;;;;5008357;28;20159;-60
2021/03/24 01:58:36;;;;;;;23.83;7.78;;;-3276.10;92.10;;;;;;5011691;28;20089;-61
2021/03/24 02:01:08;;;;;;;14.73;6.50;;;-3276.10;92.30;;;;;;5025488;28;20357;-61
2021/03/24 02:03:36;;;;;;;18.85;6.80;;;-3276.00;92.40;;;;;;5014185;28;20053;-60
2021/03/24 02:06:11;;;;;;;18.25;6.40;;;-3276.00;92.40;;;;;;5014393;28;20357;-60
2021/03/24 02:08:42;;;;;;;15.18;5.72;;;-3276.00;92.50;;;;;;5008890;28;20045;-61
2021/03/24 02:11:15;;;;;;;19.77;7.78;;;-3275.90;92.50;;;;;;5013544;28;20049;-60
2021/03/24 02:13:47;;;;;;;12.70;5.45;;;-3275.90;92.50;;;;;;5013972;28;20057;-62
2021/03/24 02:16:18;;;;;;;10.52;5.95;;;-3275.90;92.40;;;;;;5012893;28;20058;-61
2021/03/24 02:18:50;;;;;;;11.23;5.28;;;-3275.90;92.60;;;;;;5016451;28;20084;-61
2021/03/24 02:21:21;;;;;;;11.27;5.10;;;-3275.90;92.70;;;;;;5014274;28;20041;-60
2021/03/24 02:23:56;;;;;;;11.45;5.07;;;-3275.90;92.60;;;;;;5014856;28;20060;-60
2021/03/24 02:26:35;;;;;;;12.15;4.43;;;-3275.90;92.70;;;;;;5011509;28;20661;-62
2021/03/24 02:29:05;;;;;;;10.15;5.32;;;-3276.00;92.40;;;;;;5017572;28;20333;-61
2021/03/24 02:31:34;;;;;;;11.15;5.65;;;-3276.10;91.80;;;;;;5013068;28;20263;-61
2021/03/24 02:34:04;;;;;;;15.38;6.03;;;-3276.10;92.00;;;;;;5015952;28;20053;-60
2021/03/24 02:36:32;;;;;;;13.57;5.60;;;-3276.00;92.10;;;;;;5017439;28;20054;-61
2021/03/24 02:39:03;;;;;;;17.85;5.75;;;-3276.00;92.20;;;;;;5014491;28;20038;-61
2021/03/24 02:41:31;;;;;;;18.30;6.85;;;-3275.90;92.30;;;;;;5015032;28;20356;-61
2021/03/24 02:43:59;;;;;;;17.17;7.53;;;-3275.80;92.40;;;;;;5012754;28;20108;-61
2021/03/24 02:46:28;;;;;;;14.40;5.88;;;-3275.80;92.50;;;;;;5010827;28;20068;-62
2021/03/24 02:48:57;;;;;;;19.92;7.85;;;-3275.80;92.60;;;;;;5013875;28;20042;-61
2021/03/24 02:51:26;;;;;;;15.13;6.85;;;-3275.80;92.60;;;;;;5015343;28;20053;-62
2021/03/24 02:53:53;;;;;;;23.10;9.05;;;-3275.70;92.70;;;;;;5028705;28;20054;-61
2021/03/24 02:56:21;;;;;;;13.35;6.03;;;-3275.70;92.70;;;;;;5012010;28;20645;-61
2021/03/24 02:58:50;;;;;;;14.77;5.85;;;-3275.70;92.80;;;;;;5013668;28;20049;-61
2021/03/24 03:01:21;;;;;;;13.93;6.22;;;-3275.60;92.90;;;;;;5006884;28;20121;-61
2021/03/24 03:03:52;;;;;;;14.15;5.32;;;-3275.70;93.00;;;;;;5016277;28;20415;-60
2021/03/24 03:06:21;;;;;;;13.50;4.70;;;-3275.70;92.70;;;;;;5013687;28;20284;-60
2021/03/24 03:08:55;;;;;;;13.10;5.82;;;-3275.70;92.70;;;;;;5012302;28;20151;-61
2021/03/24 03:11:29;;;;;;;13.32;5.78;;;-3275.70;92.80;;;;;;5016464;28;20808;-61
2021/03/24 03:14:03;;;;;;;12.18;6.22;;;-3275.80;92.40;;;;;;5008854;28;20053;-61
2021/03/24 03:16:36;;;;;;;15.68;6.53;;;-3275.90;91.80;;;;;;5010823;28;20069;-61
2021/03/24 03:19:10;;;;;;;15.27;6.78;;;-3275.90;91.60;;;;;;5011116;28;20042;-61
2021/03/24 03:21:41;;;;;;;13.60;5.82;;;-3275.80;91.80;;;;;;5009897;28;20049;-61
2021/03/24 03:24:11;;;;;;;20.02;6.25;;;-3275.80;92.20;;;;;;5011363;28;20339;-61
2021/03/24 03:26:43;;;;;;;13.47;6.27;;;-3275.80;92.10;;;;;;5026103;28;20356;-61
2021/03/24 03:29:15;;;;;;;16.55;7.20;;;-3275.90;91.90;;;;;;5013246;28;20123;-61
2021/03/24 03:31:46;;;;;;;15.98;6.40;;;-3275.90;91.90;;;;;;5010599;28;20207;-60
2021/03/24 03:34:16;;;;;;;15.20;7.05;;;-3275.90;91.80;;;;;;5012925;28;20064;-62
2021/03/24 03:36:48;;;;;;;17.63;6.75;;;-3275.70;91.80;;;;;;5016525;28;20117;-60
2021/03/24 03:39:18;;;;;;;15.25;6.35;;;-3275.60;92.10;;;;;;5016108;28;20049;-60
2021/03/24 03:41:47;;;;;;;16.65;7.13;;;-3275.60;92.40;;;;;;5017809;28;20041;-61
2021/03/24 03:44:15;;;;;;;15.05;6.15;;;-3275.50;92.70;;;;;;5016450;28;20057;-62
2021/03/24 03:46:49;;;;;;;15.45;6.47;;;-3275.50;92.90;;;;;;5019163;28;20105;-61
2021/03/24 03:49:18;;;;;;;13.23;6.40;;;-3275.50;93.10;;;;;;5031794;28;20061;-61
2021/03/24 03:51:54;;;;;;;15.68;5.60;;;-3275.50;93.10;;;;;;5020468;28;20053;-60
2021/03/24 03:54:27;;;;;;;15.38;6.60;;;-3275.50;93.10;;;;;;5020500;28;20364;-61
2021/03/24 03:57:05;;;;;;;12.40;5.47;;;-3275.50;93.00;;;;;;5016558;28;20053;-60
2021/03/24 03:59:38;;;;;;;18.65;5.97;;;-3275.40;92.90;;;;;;5018004;28;20060;-61
2021/03/24 04:02:14;;;;;;;12.90;5.13;;;-3275.50;92.90;;;;;;5011064;28;20054;-62
2021/03/24 04:04:47;;;;;;;18.02;7.10;;;-3275.50;92.90;;;;;;5017505;28;20065;-60
2021/03/24 04:07:19;;;;;;;17.33;8.07;;;-3275.50;92.60;;;;;;5019486;28;20337;-61
2021/03/24 04:09:47;;;;;;;14.80;6.18;;;-3275.40;92.70;;;;;;5013269;28;20511;-60
2021/03/24 04:12:16;;;;;;;18.52;7.07;;;-3275.50;92.80;;;;;;5014458;28;20053;-61
2021/03/24 04:14:45;;;;;;;18.65;7.75;;;-3275.50;92.60;;;;;;5011727;28;20049;-60
2021/03/24 04:17:14;;;;;;;16.75;6.85;;;-3275.40;92.40;;;;;;5015803;28;20272;-61
2021/03/24 04:19:45;;;;;;;14.45;6.28;;;-3275.40;92.60;;;;;;5019055;28;20053;-61
2021/03/24 04:22:14;;;;;;;15.73;5.72;;;-3275.40;92.70;;;;;;5014988;28;20141;-61
2021/03/24 04:24:45;;;;;;;19.38;6.72;;;-3275.30;92.60;;;;;;5019422;28;20046;-61
2021/03/24 04:27:15;;;;;;;13.48;6.30;;;-3275.30;92.90;;;;;;5015213;28;20065;-61
2021/03/24 04:29:45;;;;;;;14.43;5.88;;;-3275.30;93.10;;;;;;5018637;28;20064;-60
2021/03/24 04:32:13;;;;;;;14.85;6.00;;;-3275.30;93.10;;;;;;5019297;28;20053;-60
2021/03/24 04:34:43;;;;;;;15.48;7.25;;;-3275.30;93.20;;;;;;5016875;28;20060;-60
2021/03/24 04:37:20;;;;;;;16.30;6.90;;;-3275.40;93.20;;;;;;5019235;28;20076;-60
2021/03/24 04:39:52;;;;;;;11.73;4.72;;;-3275.50;92.90;;;;;;5019681;28;20058;-61
2021/03/24 04:42:24;;;;;;;13.68;6.20;;;-3275.50;92.70;;;;;;5024693;28;20259;-61
2021/03/24 04:44:55;;;;;;;22.15;6.75;;;-3275.60;92.40;;;;;;5011841;28;20231;-61
2021/03/24 04:47:28;;;;;;;21.15;7.45;;;-3275.60;92.40;;;;;;5028436;28;23533;-62
2021/03/24 04:50:00;;;;;;;21.05;8.60;;;-3275.60;92.10;;;;;;5010383;28;20349;-60
2021/03/24 04:52:34;;;;;;;12.95;5.68;;;-3275.60;91.90;;;;;;5017619;28;20053;-60
2021/03/24 04:55:09;;;;;;;16.30;9.30;;;-3275.50;92.10;;;;;;5013682;28;20322;-61
2021/03/24 04:57:37;;;;;;;12.50;5.80;;;-3275.50;92.00;;;;;;5015357;28;20308;-62
2021/03/24 05:00:13;;;;;;;17.15;7.53;;;-3275.50;92.10;;;;;;5017998;28;20367;-60
2021/03/24 05:02:45;;;;;;;16.30;7.72;;;-3275.50;92.00;;;;;;5014889;28;20053;-60
2021/03/24 05:05:20;;;;;;;12.13;5.75;;;-3275.40;91.90;;;;;;5011910;28;20049;-61
2021/03/24 05:07:53;;;;;;;16.50;6.25;;;-3275.30;92.40;;;;;;5009186;28;20053;-60
2021/03/24 05:10:22;;;;;;;17.35;6.70;;;-3275.30;92.70;;;;;;5011277;28;20382;-61
2021/03/24 05:12:54;;;;;;;19.77;6.80;;;-3275.30;93.00;;;;;;5014393;28;20060;-61
2021/03/24 05:15:25;;;;;;;12.73;6.38;;;-3275.40;92.90;;;;;;5014301;28;20741;-62
2021/03/24 05:17:55;;;;;;;16.13;6.85;;;-3275.40;92.70;;;;;;5030157;28;20054;-61
2021/03/24 05:20:29;;;;;;;18.20;8.40;;;-3275.30;92.50;;;;;;5013835;28;20641;-61
2021/03/24 05:22:56;;;;;;;16.23;7.05;;;-3275.30;92.70;;;;;;5014846;28;20061;-61
2021/03/24 05:25:29;;;;;;;17.13;7.65;;;-3275.30;92.90;;;;;;5015874;28;20073;-61
2021/03/24 05:28:00;;;;;;;14.50;6.63;;;-3275.30;93.00;;;;;;5011337;28;20371;-60
2021/03/24 05:30:32;;;;;;;16.05;5.88;;;-3275.30;92.60;;;;;;5013277;28;20411;-61
2021/03/24 05:33:04;;;;;;;12.23;6.60;;;-3275.40;92.80;;;;;;5029514;28;20581;-61
2021/03/24 05:35:44;;;;;;;15.20;5.95;;;-3275.40;92.50;;;;;;5009213;28;20360;-62
2021/03/24 05:38:17;;;;;;;14.75;6.35;;;-3275.40;92.70;;;;;;5004122;28;20061;-60
2021/03/24 05:41:18;;;;;;;17.38;8.35;;;-3275.50;92.40;;;;;;5008955;28;20129;-62
2021/03/24 05:44:12;;;;;;;16.65;7.30;;;-3275.50;92.30;;;;;;5011778;28;20420;-61
2021/03/24 05:46:56;;;;;;;14.07;5.10;;;-3275.50;92.40;;;;;;4978657;28;20474;-61
2021/03/24 05:49:35;;;;;;;15.90;7.07;;;-3275.60;91.90;;;;;;4997975;28;20441;-61
2021/03/24 05:52:20;;;;;;;15.63;7.17;;;-3275.60;92.00;;;;;;4997960;28;20257;-61
2021/03/24 05:54:57;;;;;;;14.75;7.07;;;-3275.60;91.80;;;;;;5023643;28;20164;-61
2021/03/24 05:57:32;;;;;;;19.52;7.53;;;-3275.60;92.00;;;;;;5010476;28;20401;-62
2021/03/24 06:00:24;;;;;;;15.85;6.78;;;-3275.60;91.90;;;;;;5009330;28;20321;-61
2021/03/24 06:03:03;;;;;;;15.75;7.65;;;-3275.60;92.00;;;;;;5010516;28;20273;-61
2021/03/24 06:05:37;;;;;;;13.93;6.22;;;-3275.70;91.90;;;;;;5005255;28;21132;-60
2021/03/24 06:08:35;;;;;;;19.58;6.90;;;-3275.70;91.80;;;;;;5005483;28;20074;-61
2021/03/24 06:11:22;;;;;;;19.55;7.70;;;-3275.70;91.70;;;;;;5021882;28;20049;-62
2021/03/24 06:14:34;;;;;;;15.80;6.25;;;-3275.80;92.00;;;;;;4997047;28;20358;-62
2021/03/24 06:17:28;;;;;;;15.50;6.50;;;-3275.90;91.90;;;;;;5004243;28;20353;-60
2021/03/24 06:20:03;;;;;;;18.98;7.28;;;-3275.90;91.60;;;;;;5005094;28;20049;-61
2021/03/24 06:22:42;;;;;;;14.68;7.20;;;-3276.00;91.60;;;;;;5008851;28;20069;-61
2021/03/24 06:25:28;;;;;;;12.27;5.45;;;-3276.10;91.30;;;;;;5021397;28;20065;-62
2021/03/24 06:28:12;;;;;;;17.67;6.70;;;-3276.20;90.90;;;;;;5009238;28;20348;-60
2021/03/24 06:30:54;;;;;;;16.95;7.93;;;-3276.20;91.10;;;;;;5006731;28;20324;-61
2021/03/24 06:33:56;;;;;;;18.00;7.72;;;-3276.30;91.20;;;;;;5004675;28;20481;-61
2021/03/24 06:36:49;;;;;;;19.85;9.05;;;-3276.40;90.90;;;;;;5016187;28;20524;-61
2021/03/24 06:39:38;;;;;;;14.38;7.22;;;-3276.50;90.80;;;;;;5012323;28;20491;-61
2021/03/24 06:42:33;;;;;;;21.13;6.97;;;-3276.60;90.60;;;;;;5010812;28;20049;-61
2021/03/24 06:45:36;;;;;;;19.70;8.77;;;-3276.70;90.30;;;;;;5010403;28;20048;-61
2021/03/24 06:48:16;;;;;;;17.45;8.00;;;0.00;90.00;;;;;;5007536;28;20061;-61
2021/03/24 06:51:34;;;;;;;19.92;9.98;;;0.00;89.90;;;;;;5009968;28;20041;-61
2021/03/24 06:54:13;;;;;;;15.35;8.75;;;0.00;90.10;;;;;;5007602;28;20469;-61
2021/03/24 06:57:10;;;;;;;18.65;8.23;;;0.00;90.00;;;;;;5006730;28;20054;-61
2021/03/24 07:00:11;;;;;;;17.10;7.68;;;0.10;89.80;;;;;;5022188;28;21719;-64
2021/03/24 07:03:02;;;;;;;;;;;0.20;89.70;;;;;;5006902;28;20590;-61
2021/03/24 07:05:49;;;;;;;17.10;7.65;;;0.30;89.50;;;;;;5007490;28;20814;-60
2021/03/24 07:08:34;;;;;;;16.80;9.98;;;0.40;89.20;;;;;;5005480;28;20688;-60
2021/03/24 07:11:13;;;;;;;22.95;7.78;;;0.40;89.20;;;;;;5005903;28;20068;-61
2021/03/24 07:14:18;;;;;;;17.65;7.72;;;0.50;89.10;;;;;;5006735;28;20052;-60
2021/03/24 07:17:11;;;;;;;21.10;8.75;;;0.50;89.00;;;;;;5010813;28;20548;-60
2021/03/24 07:19:55;;;;;;;19.83;7.38;;;0.70;89.00;;;;;;5008658;28;21620;-60
2021/03/24 07:22:49;;;;;;;22.08;9.15;;;0.70;89.00;;;;;;5008179;28;20599;-61
2021/03/24 07:25:37;;;;;;;19.40;9.02;;;0.90;89.00;;;;;;5006556;28;20054;-61
2021/03/24 07:28:32;;;;;;;19.85;8.88;;;1.00;88.90;;;;;;5004332;28;20073;-61
2021/03/24 07:31:31;;;;;;;20.92;9.00;;;1.10;88.60;;;;;;5003555;28;20062;-61
2021/03/24 07:34:13;;;;;;;16.85;7.78;;;1.10;88.70;;;;;;4993919;28;20049;-61
2021/03/24 07:37:09;;;;;;;21.95;9.52;;;1.30;88.70;;;;;;5011276;28;20349;-61
2021/03/24 07:40:07;;;;;;;22.55;7.93;;;1.40;88.30;;;;;;4985552;28;20507;-61
2021/03/24 07:42:59;;;;;;;18.80;8.10;;;1.50;88.10;;;;;;4999097;28;20542;-61
2021/03/24 07:45:49;;;;;;;17.98;8.48;;;1.70;87.90;;;;;;5008544;28;20344;-61
2021/03/24 07:48:57;;;;;;;19.08;8.45;;;1.80;87.40;;;;;;5014424;28;20168;-61
2021/03/24 07:51:45;;;;;;;19.95;8.07;;;1.90;87.40;;;;;;4959667;28;20446;-61
2021/03/24 07:54:18;;;;;;;28.67;10.40;;;2.00;87.40;;;;;;4963478;28;20065;-61
2021/03/24 07:56:59;;;;;;;22.02;8.75;;;2.20;86.90;;;;;;4986921;28;20061;-60
2021/03/24 07:59:37;;;;;;;23.33;9.07;;;2.20;86.50;;;;;;4994154;28;22043;-60
2021/03/24 08:02:32;;;;;;;22.17;9.32;;;2.40;86.50;;;;;;4996198;28;20389;-61
2021/03/24 08:05:37;;;;;;;24.05;10.25;;;2.40;86.20;;;;;;5005457;28;20057;-62
2021/03/24 08:08:18;;;;;;;22.35;9.60;;;2.60;86.30;;;;;;4997085;28;20053;-60
2021/03/24 08:10:58;;;;;;;22.75;8.20;;;2.80;85.80;;;;;;5008405;28;20046;-61
2021/03/24 08:13:49;;;;;;;23.08;9.48;;;2.90;85.50;;;;;;5008282;28;20046;-61
2021/03/24 08:16:30;;;;;;;20.67;9.63;;;3.00;85.00;;;;;;5003296;28;20054;-61
2021/03/24 08:19:14;;;;;;;24.98;10.07;;;3.20;85.20;;;;;;5008103;28;22109;-61
2021/03/24 08:21:58;;;;;;;21.58;8.98;;;3.40;85.00;;;;;;5012050;28;20057;-61
2021/03/24 08:24:49;;;;;;;18.73;8.30;;;3.50;84.20;;;;;;5012088;28;20379;-60
2021/03/24 08:27:21;;;;;;;20.00;9.02;;;3.70;83.80;;;;;;4973436;28;20067;-61
2021/03/24 08:29:58;;;;;;;22.52;9.90;;;3.80;83.40;;;;;;4974416;28;20054;-61
2021/03/24 08:33:11;;;;;;;24.00;10.25;;;3.90;83.10;;;;;;4976663;28;20231;-61
2021/03/24 08:36:05;;;;;;;24.60;10.00;;;4.10;82.20;;;;;;4970195;28;20762;-61
2021/03/24 08:39:15;;;;;;;24.15;9.65;;;4.30;81.70;;;;;;4969840;28;20353;-61
2021/03/24 08:42:26;;;;;;;17.60;9.30;;;4.40;81.70;;;;;;4948910;28;20248;-61
2021/03/24 08:44:59;;;;;;;19.70;8.73;;;4.60;81.30;;;;;;4959440;28;21566;-61
2021/03/24 08:47:31;;;;;;;21.80;9.52;;;4.70;80.50;;;;;;4971732;28;21118;-61
2021/03/24 08:50:01;;;;;;;26.50;9.80;;;4.90;80.50;;;;;;4968154;28;20047;-61
2021/03/24 08:52:37;;;;;;;19.70;10.30;;;5.00;79.20;;;;;;4971402;28;20054;-62
2021/03/24 08:55:33;;;;;;;20.92;9.52;;;5.20;79.70;;;;;;4969718;28;20517;-61
2021/03/24 08:58:16;;;;;;;19.63;10.20;;;5.40;79.10;;;;;;4971416;28;20058;-60
2021/03/24 09:01:11;;;;;;;20.00;8.13;;;5.60;78.70;;;;;;4965019;28;20054;-61
2021/03/24 09:04:03;;;;;;;21.83;10.00;;;5.80;78.00;;;;;;4948862;28;20448;-61
2021/03/24 09:06:41;;;;;;;23.45;9.82;;;6.00;77.20;;;;;;4973120;28;20475;-60
2021/03/24 09:09:17;;;;;;;25.60;10.05;;;6.20;76.40;;;;;;4967428;28;20090;-61
2021/03/24 09:11:55;;;;;;;24.85;11.43;;;6.40;75.40;;;;;;4970744;28;20338;-62
2021/03/24 09:14:31;;;;;;;23.67;9.63;;;6.50;74.30;;;;;;4966110;28;21241;-62
2021/03/24 09:17:30;;;;;;;22.08;10.77;;;6.60;73.00;;;;;;4969502;28;20062;-61
2021/03/24 09:20:42;;;;;;;22.35;9.95;;;6.70;72.30;;;;;;4970175;28;20059;-62
2021/03/24 09:23:45;;;;;;;26.80;10.00;;;6.90;71.80;;;;;;4970480;28;20050;-61
2021/03/24 09:26:59;;;;;;;20.25;8.55;;;7.30;70.90;;;;;;4996494;28;20053;-61
2021/03/24 09:29:45;;;;;;;18.55;8.63;;;7.60;70.40;;;;;;5015174;28;20464;-61
2021/03/24 09:32:26;;;;;;;21.00;9.80;;;8.10;69.40;;;;;;5013728;28;20080;-61
2021/03/24 09:35:15;;;;;;;21.35;8.50;;;8.60;66.90;;;;;;5016487;28;20056;-61
2021/03/24 09:37:45;;;;;;;16.30;8.23;;;9.10;64.90;;;;;;5007611;28;20533;-61
2021/03/24 09:40:24;;;;;;;18.17;7.35;;;9.50;63.80;;;;;;5008762;28;20349;-60
2021/03/24 09:42:55;;;;;;;22.85;9.02;;;10.00;61.90;;;;;;5007126;28;20057;-61
2021/03/24 09:45:23;;;;;;;;;;;10.60;59.90;;;;;;5010727;28;21850;-60
2021/03/24 09:48:00;;;;;;;16.90;7.25;;;11.50;58.40;;;;;;5006866;28;19925;-61
2021/03/24 09:50:43;;;;;;;21.40;9.13;;;12.10;56.30;;;;;;5010664;28;21271;-61
2021/03/24 09:53:15;;;;;;;19.38;7.32;;;12.80;52.50;;;;;;5025737;28;20045;-61
2021/03/24 09:55:46;;;;;;;16.80;7.50;;;13.60;51.30;;;;;;5007085;28;20054;-61
2021/03/24 09:59:06;;;;;;;17.63;6.72;;;14.20;46.80;;;;;;5014139;28;20050;-61
2021/03/24 10:01:49;;;;;;;16.30;7.30;;;14.30;45.60;;;;;;4985140;28;20420;-61
2021/03/24 10:04:36;;;;;;;18.10;7.68;;;15.10;44.80;;;;;;4982568;28;20397;-61
2021/03/24 10:07:09;;;;;;;15.60;7.85;;;15.10;42.20;;;;;;5004666;28;20046;-61
2021/03/24 10:09:43;;;;;;;20.00;7.95;;;16.10;41.80;;;;;;5014377;28;20375;-60
2021/03/24 10:12:21;;;;;;;17.05;7.07;;;16.70;39.70;;;;;;5012231;28;20053;-61
2021/03/24 10:14:56;;;;;;;20.30;8.68;;;17.00;39.80;;;;;;5011144;28;20046;-61
2021/03/24 10:17:27;;;;;;;17.85;8.65;;;16.90;38.60;;;;;;5011915;28;20637;-61
2021/03/24 10:19:59;;;;;;;19.02;8.93;;;17.40;37.50;;;;;;5016415;28;20122;-60
2021/03/24 10:22:36;;;;;;;21.48;8.18;;;17.70;37.90;;;;;;5022976;28;20368;-60
2021/03/24 10:25:08;;;;;;;17.98;8.57;;;17.60;37.10;;;;;;5012330;28;20058;-61
2021/03/24 10:27:36;;;;;;;19.17;9.07;;;17.90;36.00;;;;;;5010328;28;20219;-61
2021/03/24 10:30:25;;;;;;;23.95;9.60;;;18.00;36.50;;;;;;5010301;28;20057;-61
2021/03/24 10:33:02;;;;;;;21.67;9.55;;;17.70;36.80;;;;;;5008700;28;20050;-61
2021/03/24 10:35:38;;;;;;;19.63;9.90;;;18.80;34.20;;;;;;5008042;28;20361;-62
2021/03/24 10:38:27;;;;;;;19.23;9.43;;;19.50;34.80;;;;;;5006511;28;20046;-62
2021/03/24 10:41:09;;;;;;;19.67;9.52;;;20.10;32.60;;;;;;5005940;28;20379;-61
2021/03/24 10:43:42;;;;;;;24.60;10.02;;;19.90;32.50;;;;;;5022521;28;20281;-60
2021/03/24 10:46:14;;;;;;;19.20;8.82;;;20.00;32.50;;;;;;5006157;28;20066;-61
2021/03/24 10:48:51;;;;;;;20.83;8.98;;;20.30;32.50;;;;;;5027787;28;20202;-62
2021/03/24 10:51:26;;;;;;;23.75;8.88;;;20.70;31.60;;;;;;5013818;28;20229;-60
2021/03/24 10:54:04;;;;;;;16.60;8.57;;;20.00;32.10;;;;;;5017004;28;20129;-61
2021/03/24 10:56:38;;;;;;;20.83;9.05;;;20.00;32.70;;;;;;5030150;28;20763;-61
2021/03/24 10:59:13;;;;;;;18.60;8.75;;;20.10;31.10;;;;;;5018047;28;20319;-61
2021/03/24 11:01:46;;;;;;;18.25;8.27;;;21.50;30.10;;;;;;5010620;28;20062;-61
2021/03/24 11:04:21;;;;;;;18.83;9.80;;;21.20;29.90;;;;;;5017167;28;20237;-61
2021/03/24 11:06:56;;;;;;;16.88;8.52;;;22.10;29.50;;;;;;5013792;28;20076;-61
2021/03/24 11:09:26;;;;;;;17.17;8.70;;;21.70;29.10;;;;;;5013052;28;20826;-62
2021/03/24 11:11:55;;;;;;;;;;;22.00;29.30;;;;;;5018557;28;20100;-62
2021/03/24 11:14:24;;;;;;;18.40;9.07;;;23.50;27.70;;;;;;5015988;28;20235;-62
2021/03/24 11:16:59;;;;;;;20.70;9.25;;;23.50;26.80;;;;;;5020569;28;20054;-62
2021/03/24 11:19:30;;;;;;;20.35;10.45;;;23.30;27.10;;;;;;5016319;28;20483;-62
2021/03/24 11:22:18;;;;;;;17.88;9.70;;;22.30;27.90;;;;;;5018165;28;20057;-62
2021/03/24 11:24:53;;;;;;;18.25;9.30;;;22.60;28.30;;;;;;5016764;28;21195;-62
2021/03/24 11:27:29;;;;;;;16.73;8.05;;;23.80;27.20;;;;;;5016446;28;21074;-61
2021/03/24 11:30:22;;;;;;;17.77;9.43;;;24.00;26.30;;;;;;5015225;28;20054;-61
2021/03/24 11:32:59;;;;;;;17.30;9.63;;;23.10;26.40;;;;;;5012483;28;20249;-61
2021/03/24 11:35:32;;;;;;;18.58;9.25;;;23.40;27.10;;;;;;5017898;28;20177;-61
2021/03/24 11:38:20;;;;;;;18.73;10.23;;;25.10;24.80;;;;;;5016579;28;20053;-60
2021/03/24 11:40:59;;;;;;;16.33;9.10;;;24.90;25.00;;;;;;5019946;28;20237;-60
2021/03/24 11:43:30;;;;;;;18.60;8.43;;;24.30;25.50;;;;;;5013851;28;20661;-60
2021/03/24 11:46:14;;;;;;;21.00;8.85;;;24.50;25.00;;;;;;5013595;28;20054;-61
2021/03/24 11:49:12;;;;;;;16.08;7.93;;;24.20;25.40;;;;;;5013652;28;20096;-62
2021/03/24 11:51:52;;;;;;;18.58;8.43;;;23.40;26.20;;;;;;5013195;28;20575;-62
2021/03/24 11:54:29;;;;;;;16.90;8.73;;;23.90;25.90;;;;;;5020381;28;20746;-61
2021/03/24 11:57:19;;;;;;;17.30;8.75;;;25.10;24.20;;;;;;5019363;28;20054;-62
2021/03/24 11:59:57;;;;;;;;;;;26.40;23.80;;;;;;5011424;28;20046;-61
2021/03/24 12:02:38;;;;;;;16.73;7.60;;;26.60;22.60;;;;;;5015111;28;20274;-62
2021/03/24 12:05:15;;;;;;;15.63;7.93;;;27.80;21.80;;;;;;5015582;28;20046;-61
2021/03/24 12:08:00;;;;;;;16.90;8.50;;;26.00;23.20;;;;;;5021631;28;20053;-61
2021/03/24 12:10:37;;;;;;;15.73;7.80;;;26.20;23.20;;;;;;5031265;28;20573;-61
2021/03/24 12:13:12;;;;;;;15.43;8.02;;;25.20;23.50;;;;;;5021146;28;20088;-61
2021/03/24 12:15:42;;;;;;;16.38;8.10;;;25.80;23.30;;;;;;5016234;28;20057;-61
2021/03/24 12:18:10;;;;;;;;;;;25.30;23.40;;;;;;5018093;28;20052;-62
2021/03/24 12:20:57;;;;;;;14.77;7.53;;;25.20;23.20;;;;;;5014846;28;19963;-62
2021/03/24 12:23:28;;;;;;;16.60;7.65;;;26.30;22.80;;;;;;5017955;28;20525;-62
2021/03/24 12:25:59;;;;;;;18.30;7.72;;;26.60;22.50;;;;;;5016321;28;20155;-62
2021/03/24 12:28:32;;;;;;;14.32;7.68;;;26.10;22.70;;;;;;5016803;28;20064;-62
2021/03/24 12:31:11;;;;;;;16.08;7.93;;;27.00;22.50;;;;;;5019247;28;20054;-62
2021/03/24 12:33:47;;;;;;;18.08;8.27;;;27.60;21.20;;;;;;5015609;28;20054;-62
2021/03/24 12:36:19;;;;;;;14.07;7.63;;;25.60;23.30;;;;;;5012847;28;20250;-62
2021/03/24 12:38:53;;;;;;;14.57;7.13;;;27.10;21.60;;;;;;5017538;28;20324;-62
2021/03/24 12:41:35;;;;;;;15.40;7.57;;;26.30;22.10;;;;;;5031248;28;21143;-62
2021/03/24 12:44:18;;;;;;;17.92;8.48;;;26.60;22.50;;;;;;5018423;28;20041;-62
2021/03/24 12:46:55;;;;;;;13.05;7.55;;;26.10;23.00;;;;;;5017534;28;20124;-62
2021/03/24 12:49:25;;;;;;;14.07;7.20;;;26.50;22.40;;;;;;5013769;28;20345;-61
2021/03/24 12:52:22;;;;;;;19.20;8.63;;;27.00;21.50;;;;;;5030973;28;20061;-62
2021/03/24 12:54:50;;;;;;;18.42;8.10;;;26.20;22.60;;;;;;5017117;28;20452;-62
2021/03/24 12:57:45;;;;;;;15.88;8.65;;;26.30;22.80;;;;;;5017379;28;20161;-61
2021/03/24 13:00:31;;;;;;;14.68;7.95;;;26.00;22.40;;;;;;5010604;28;20100;-62
2021/03/24 13:03:38;;;;;;;15.57;8.07;;;26.90;22.30;;;;;;5014228;28;20159;-62
2021/03/24 13:06:17;;;;;;;14.90;7.82;;;27.90;21.30;;;;;;5029234;28;20202;-62
2021/03/24 13:08:51;;;;;;;16.85;8.77;;;27.10;21.60;;;;;;5019811;28;20215;-61
2021/03/24 13:11:30;;;;;;;13.85;7.82;;;25.90;22.30;;;;;;5019080;28;20053;-62
2021/03/24 13:14:06;;;;;;;14.75;7.35;;;25.30;22.70;;;;;;5020635;28;20066;-62
2021/03/24 13:16:40;;;;;;;13.48;7.25;;;26.30;21.50;;;;;;5019619;28;20333;-62
2021/03/24 13:19:19;;;;;;;15.68;7.90;;;25.00;23.00;;;;;;5020974;28;20353;-62